地図

経路データ

SID SEASON NUMBER BASIN SUBBASIN NAME ISO_TIME NATURE LAT LON WMO_WIND WMO_PRES WMO_AGENCY TRACK_TYPE DIST2LAND LANDFALL IFLAG USA_AGENCY USA_ATCF_ID USA_LAT USA_LON USA_RECORD USA_STATUS USA_WIND USA_PRES USA_SSHS USA_R34_NE USA_R34_SE USA_R34_SW USA_R34_NW USA_R50_NE USA_R50_SE USA_R50_SW USA_R50_NW USA_R64_NE USA_R64_SE USA_R64_SW USA_R64_NW USA_POCI USA_ROCI USA_RMW USA_EYE TOKYO_LAT TOKYO_LON TOKYO_GRADE TOKYO_WIND TOKYO_PRES TOKYO_R50_DIR TOKYO_R50_LONG TOKYO_R50_SHORT TOKYO_R30_DIR TOKYO_R30_LONG TOKYO_R30_SHORT TOKYO_LAND CMA_LAT CMA_LON CMA_CAT CMA_WIND CMA_PRES HKO_LAT HKO_LON HKO_CAT HKO_WIND HKO_PRES NEWDELHI_LAT NEWDELHI_LON NEWDELHI_GRADE NEWDELHI_WIND NEWDELHI_PRES NEWDELHI_CI NEWDELHI_DP NEWDELHI_POCI REUNION_LAT REUNION_LON REUNION_TYPE REUNION_WIND REUNION_PRES REUNION_TNUM REUNION_CI REUNION_RMW REUNION_R34_NE REUNION_R34_SE REUNION_R34_SW REUNION_R34_NW REUNION_R50_NE REUNION_R50_SE REUNION_R50_SW REUNION_R50_NW REUNION_R64_NE REUNION_R64_SE REUNION_R64_SW REUNION_R64_NW BOM_LAT BOM_LON BOM_TYPE BOM_WIND BOM_PRES BOM_TNUM BOM_CI BOM_RMW BOM_R34_NE BOM_R34_SE BOM_R34_SW BOM_R34_NW BOM_R50_NE BOM_R50_SE BOM_R50_SW BOM_R50_NW BOM_R64_NE BOM_R64_SE BOM_R64_SW BOM_R64_NW BOM_ROCI BOM_POCI BOM_EYE BOM_POS_METHOD BOM_PRES_METHOD NADI_LAT NADI_LON NADI_CAT NADI_WIND NADI_PRES WELLINGTON_LAT WELLINGTON_LON WELLINGTON_WIND WELLINGTON_PRES DS824_LAT DS824_LON DS824_STAGE DS824_WIND DS824_PRES TD9636_LAT TD9636_LON TD9636_STAGE TD9636_WIND TD9636_PRES TD9635_LAT TD9635_LON TD9635_WIND TD9635_PRES TD9635_ROCI NEUMANN_LAT NEUMANN_LON NEUMANN_CLASS NEUMANN_WIND NEUMANN_PRES MLC_LAT MLC_LON MLC_CLASS MLC_WIND MLC_PRES USA_GUST BOM_GUST BOM_GUST_PER REUNION_GUST REUNION_GUST_PER USA_SEAHGT USA_SEARAD_NE USA_SEARAD_SE USA_SEARAD_SW USA_SEARAD_NW STORM_SPEED STORM_DIR
1930070S09097 1930 19 SI WA NOT_NAMED 1930-03-11 06:00:00 NR -9.45000 97.0000 main 842 850 _____O____O___ -1 -9.10000 97.1000 99 9.90000 -9.80000 96.9000 7 2 218
1930070S09097 1930 19 SI WA NOT_NAMED 1930-03-11 09:00:00 NR -9.51204 96.9476 main 857 857 _____P____P___ -1 -9.15534 97.0359 99 -9.86875 96.8593 7 2 219
1930070S09097 1930 19 SI WA NOT_NAMED 1930-03-11 12:00:00 NR -9.58126 96.8934 main 865 865 _____P____P___ -1 -9.21253 96.9719 99 -9.94999 96.8149 7 2 216
1930070S09097 1930 19 SI WA NOT_NAMED 1930-03-11 15:00:00 NR -9.66486 96.8356 main 881 881 _____P____P___ -1 -9.27348 96.9082 99 -10.0562 96.7631 7 2 213
1930070S09097 1930 19 SI WA NOT_NAMED 1930-03-11 18:00:00 NR -9.77002 96.7725 main 889 889 _____P____O___ -1 -9.34003 96.8450 99 -10.2000 96.7000 7 3 210
1930070S09097 1930 19 SI WA NOT_NAMED 1930-03-11 21:00:00 NR -9.90080 96.7033 main 905 905 _____P____P___ -1 -9.41409 96.7824 99 -10.3875 96.6241 7 3 207
1930070S09097 1930 19 SI WA NOT_NAMED 1930-03-12 00:00:00 NR -10.0488 96.6316 main 920 920 _____P____P___ -1 -9.49752 96.7206 99 -10.6000 96.5426 7 3 204
1930070S09097 1930 19 SI WA NOT_NAMED 1930-03-12 03:00:00 NR -10.2024 96.5623 main 937 937 _____P____P___ -1 -9.59219 96.6598 99 -10.8125 96.4648 7 3 204
1930070S09097 1930 19 SI WA NOT_NAMED 1930-03-12 06:00:00 NR -10.3500 96.5000 main 952 952 _____O____O___ -1 -9.70000 96.6000 99 9.90000 -11.0000 96.4000 7 3 203
1930070S09097 1930 19 SI WA NOT_NAMED 1930-03-12 09:00:00 NR -10.4673 96.4490 main 976 976 _____P____P___ -1 -9.82211 96.5415 99 -11.1125 96.3565 7 2 201
1930070S09097 1930 19 SI WA NOT_NAMED 1930-03-12 12:00:00 NR -10.5784 96.4061 main 985 985 _____P____P___ -1 -9.95688 96.4847 99 -11.2000 96.3274 7 2 199
1930070S09097 1930 19 SI WA NOT_NAMED 1930-03-12 15:00:00 NR -10.6947 96.3698 main 993 993 _____P____P___ -1 -10.1020 96.4299 99 -11.2875 96.3097 7 3 196
1930070S09097 1930 19 SI WA NOT_NAMED 1930-03-12 18:00:00 NR -10.8275 96.3388 main 1009 1009 _____P____O___ -1 -10.2550 96.3776 99 -11.4000 96.3000 7 3 189
1930070S09097 1930 19 SI WA NOT_NAMED 1930-03-12 21:00:00 NR -11.0047 96.3104 main 1026 1026 _____P____P___ -1 -10.4137 96.3280 99 -11.5956 96.2928 7 4 188
1930070S09097 1930 19 SI WA NOT_NAMED 1930-03-13 00:00:00 NR -11.1953 96.2870 main 1043 1043 _____P____P___ -1 -10.5756 96.2816 99 -11.8150 96.2925 7 4 185
1930070S09097 1930 19 SI WA NOT_NAMED 1930-03-13 03:00:00 NR -11.3827 96.2674 main 1060 1060 _____P____P___ -1 -10.7385 96.2388 99 -12.0269 96.2959 7 4 185
1930070S09097 1930 19 SI WA NOT_NAMED 1930-03-13 06:00:00 NR -11.5500 96.2500 main 1069 1069 _____O____O___ -1 -10.9000 96.2000 99 9.90000 -12.2000 96.3000 7 3 189
1930070S09097 1930 19 SI WA NOT_NAMED 1930-03-13 09:00:00 NR -11.6643 96.2261 main 1093 1093 _____P____P___ -1 -11.0557 96.1562 99 -12.2728 96.2960 7 2 190
1930070S09097 1930 19 SI WA NOT_NAMED 1930-03-13 12:00:00 NR -11.7598 96.2039 main 1101 1101 _____P____P___ -1 -11.2122 96.1154 99 -12.3075 96.2925 7 2 193
1930070S09097 1930 19 SI WA NOT_NAMED 1930-03-13 15:00:00 NR -11.8533 96.1858 main 1109 1109 _____P____P___ -1 -11.3681 96.0788 99 -12.3384 96.2928 7 2 192
1930070S09097 1930 19 SI WA NOT_NAMED 1930-03-13 18:00:00 NR -11.9612 96.1738 main 1117 1117 _____P____O___ -1 -11.5225 96.0476 99 -12.4000 96.3000 7 3 182
1930070S09097 1930 19 SI WA NOT_NAMED 1930-03-13 21:00:00 NR -12.1126 96.1623 main 1126 1126 _____P____P___ -1 -11.6740 96.0230 99 -12.5512 96.3016 7 3 0
1930070S09097 1930 19 SI WA NOT_NAMED 1930-03-14 00:00:00 NR -12.2783 96.1593 main 1143 1143 _____P____P___ -1 -11.8215 96.0060 99 -12.7350 96.3126 7 3 176
1930070S09097 1930 19 SI WA NOT_NAMED 1930-03-14 03:00:00 NR -12.4451 96.1701 main 1151 1151 _____P____P___ -1 -11.9639 95.9980 99 -12.9262 96.3422 7 3 173
1930070S09097 1930 19 SI WA NOT_NAMED 1930-03-14 06:00:00 NR -12.6000 96.2000 main 1168 1168 _____O____O___ -1 -12.1000 96.0000 99 9.90000 -13.1000 96.4000 7 3 165
1930070S09097 1930 19 SI WA NOT_NAMED 1930-03-14 09:00:00 NR -12.7279 96.2465 main 1177 1170 _____P____P___ -1 -12.2302 96.0009 99 -13.2256 96.4922 7 3 155
1930070S09097 1930 19 SI WA NOT_NAMED 1930-03-14 12:00:00 NR -12.8423 96.3116 main 1179 1179 _____P____P___ -1 -12.3546 96.0107 99 -13.3300 96.6125 7 3 146
1930070S09097 1930 19 SI WA NOT_NAMED 1930-03-14 15:00:00 NR -12.9464 96.3909 main 1181 1179 _____P____P___ -1 -12.4735 96.0301 99 -13.4194 96.7516 7 3 141
1930070S09097 1930 19 SI WA NOT_NAMED 1930-03-14 18:00:00 NR -13.0437 96.4800 main 1179 1177 _____P____O___ -1 -12.5873 96.0601 99 -13.5000 96.9000 7 3 139
1930070S09097 1930 19 SI WA NOT_NAMED 1930-03-14 21:00:00 NR -13.1434 96.5680 main 1177 1175 _____P____P___ -1 -12.6965 96.1013 99 -13.5903 97.0347 7 3 137
1930070S09097 1930 19 SI WA NOT_NAMED 1930-03-15 00:00:00 NR -13.2369 96.6660 main 1175 1173 _____P____P___ -1 -12.8014 96.1545 99 -13.6724 97.1775 7 3 131
1930070S09097 1930 19 SI WA NOT_NAMED 1930-03-15 03:00:00 NR -13.3229 96.7760 main 1173 1171 _____P____P___ -1 -12.9025 96.2205 99 -13.7434 97.3316 7 3 126
1930070S09097 1930 19 SI WA NOT_NAMED 1930-03-15 06:00:00 NR -13.4000 96.9000 main 1171 1163 _____O____O___ -1 -13.0000 96.3000 99 9.90000 -13.8000 97.5000 7 3 121
1930070S09097 1930 19 SI WA NOT_NAMED 1930-03-15 09:00:00 NR -13.4749 97.0363 main 1170 1153 _____P____P___ -1 -13.1063 96.3828 99 -13.8435 97.6897 7 3 117
1930070S09097 1930 19 SI WA NOT_NAMED 1930-03-15 12:00:00 NR -13.5411 97.1859 main 1153 1152 _____P____P___ -1 -13.2096 96.4793 99 -13.8725 97.8925 7 3 113
1930070S09097 1930 19 SI WA NOT_NAMED 1930-03-15 15:00:00 NR -13.5995 97.3438 main 1152 1135 _____P____P___ -1 -13.3087 96.5885 99 -13.8903 98.0991 7 3 110
1930070S09097 1930 19 SI WA NOT_NAMED 1930-03-15 18:00:00 NR -13.6512 97.5049 main 1143 1127 _____P____O___ -1 -13.4024 96.7098 99 -13.9000 98.3000 7 3 107
1930070S09097 1930 19 SI WA NOT_NAMED 1930-03-15 21:00:00 NR -13.6969 97.6653 main 1127 1127 _____P____P___ -1 -13.4895 96.8424 99 -13.9044 98.4881 7 2 108
1930070S09097 1930 19 SI WA NOT_NAMED 1930-03-16 00:00:00 NR -13.7130 97.7053 main 1127 1127 _____P____P___ -1 -13.5689 96.9855 99 -13.9050 98.6650 7 0 123
1930070S09097 1930 19 SI WA NOT_NAMED 1930-03-16 03:00:00 NR -13.7274 97.7037 main 1127 1127 _____P____P___ -1 -13.6395 97.1383 99 -13.9032 98.8344 7 1 247
1930070S09097 1930 19 SI WA NOT_NAMED 1930-03-16 06:00:00 NR -13.7400 97.6400 main 1135 1135 _____O____O___ -1 -13.7000 97.3000 99 9.90000 -13.9000 99.0000 7 2 264
1930070S09097 1930 19 SI WA NOT_NAMED 1930-03-16 09:00:00 NR -13.7522 97.4777 main 1150 1134 _____P________ -1 -13.7522 97.4777 99 7 1 166
1930070S09097 1930 19 SI WA NOT_NAMED 1930-03-16 12:00:00 NR -13.7944 97.6676 main 1134 1119 _____P________ -1 -13.7944 97.6676 99 7 4 101
1930070S09097 1930 19 SI WA NOT_NAMED 1930-03-16 15:00:00 NR -13.8276 97.8650 main 1119 1111 _____P________ -1 -13.8276 97.8650 99 7 4 99
1930070S09097 1930 19 SI WA NOT_NAMED 1930-03-16 18:00:00 NR -13.8530 98.0651 main 1111 1096 _____P________ -1 -13.8530 98.0651 99 4 97
1930070S09097 1930 19 SI WA NOT_NAMED 1930-03-16 21:00:00 NR -13.8717 98.2634 main 1096 1088 _____P________ -1 -13.8717 98.2634 99 4 95
1930070S09097 1930 19 SI WA NOT_NAMED 1930-03-17 00:00:00 NR -13.8850 98.4551 main 1081 1074 _____P________ -1 -13.8850 98.4551 99 4 94
1930070S09097 1930 19 SI WA NOT_NAMED 1930-03-17 03:00:00 NR -13.8940 98.6355 main 1074 1059 _____P________ -1 -13.8940 98.6355 99 3 93
1930070S09097 1930 19 SI WA NOT_NAMED 1930-03-17 06:00:00 NR -13.9000 98.8000 main 1059 1052 _____O________ -1 -13.9000 98.8000 99 9.90000 3 92
1930070S09097 1930 19 SI WA NOT_NAMED 1930-03-17 09:00:00 NR -13.9039 98.9451 main 1052 1038 _____P________ -1 -13.9039 98.9451 99 3 91
1930070S09097 1930 19 SI WA NOT_NAMED 1930-03-17 12:00:00 NR -13.9063 99.0722 main 1038 1031 _____P________ -1 -13.9063 99.0722 99 2 91
1930070S09097 1930 19 SI WA NOT_NAMED 1930-03-17 15:00:00 NR -13.9073 99.1837 main 1031 1024 _____P________ -1 -13.9073 99.1837 99 2 90
1930070S09097 1930 19 SI WA NOT_NAMED 1930-03-17 18:00:00 NR -13.9072 99.2825 main 1024 1017 _____P________ -1 -13.9072 99.2825 99 2 90
1930070S09097 1930 19 SI WA NOT_NAMED 1930-03-17 21:00:00 NR -13.9062 99.3709 main 1017 1017 _____P________ -1 -13.9062 99.3709 99 2 89
1930070S09097 1930 19 SI WA NOT_NAMED 1930-03-18 00:00:00 NR -13.9045 99.4515 main 1010 1010 _____P________ -1 -13.9045 99.4515 99 2 89
1930070S09097 1930 19 SI WA NOT_NAMED 1930-03-18 03:00:00 NR -13.9024 99.5271 main 1010 1003 _____P________ -1 -13.9024 99.5271 99 1 88
1930070S09097 1930 19 SI WA NOT_NAMED 1930-03-18 06:00:00 NR -13.9000 99.6000 main 1003 _____O________ -1 -13.9000 99.6000 99 9.90000 1 88

IBTrACS Databaseについて

本データベースは、米国NOAAが公開する1842年以降の世界の熱帯低気圧のベストトラックデータアーカイブInternational Best Track Archive for Climate Stewardship (IBTrACS)を、ウェブで閲覧しやすい形式に変換したものです。

最終更新日:2021-10-21